Time;durP1;ratioP1;P1;durP2;ratioP2;P2;SDS_P1;SDS_P2;PMS_P1;PMS_P2;Temp;Humidity;BMP_temperature;BMP_pressure;BME280_temperature;BME280_humidity;BME280_pressure;Samples;Min_cycle;Max_cycle;Signal;HPM_P1;HPM_P2
2024/02/01 00:02:19;;;;;;;11.00;6.60;;;;;;;4.26;77.16;101313.79;110812;1218;138706;-69
2024/02/01 00:04:44;;;;;;;15.50;7.80;;;;;;;4.28;77.24;101299.45;110898;1212;98440;-69
2024/02/01 00:07:10;;;;;;;11.20;6.60;;;;;;;4.28;77.36;101296.27;110918;1206;97606;-69
2024/02/01 00:09:35;;;;;;;11.90;7.00;;;;;;;4.30;77.09;101289.88;110848;1223;138282;-69
2024/02/01 00:12:01;;;;;;;14.00;6.90;;;;;;;4.29;77.23;101289.52;110788;1206;97692;-69
2024/02/01 00:14:26;;;;;;;12.60;7.20;;;;;;;4.30;77.35;101291.11;110932;1222;138291;-69
2024/02/01 00:16:52;;;;;;;15.60;6.50;;;;;;;4.31;77.36;101295.89;110866;1206;97590;-69
2024/02/01 00:19:17;;;;;;;11.70;6.70;;;;;;;4.31;77.26;101295.17;110978;1212;97795;-69
2024/02/01 00:21:44;;;;;;;10.30;6.40;;;;;;;4.30;77.19;101293.59;110768;1212;138736;-69
2024/02/01 00:24:09;;;;;;;12.10;6.30;;;;;;;4.28;77.32;101295.37;110881;1212;97708;-69
2024/02/01 00:26:35;;;;;;;14.40;7.20;;;;;;;4.28;77.30;101298.02;110886;1209;138875;-69
2024/02/01 00:29:11;;;;;;;13.30;7.70;;;;;;;4.30;77.36;101295.19;110734;1211;97568;-70
2024/02/01 00:31:36;;;;;;;14.40;7.40;;;;;;;4.32;77.31;101290.04;110716;1212;138484;-70
2024/02/01 00:34:02;;;;;;;17.10;7.40;;;;;;;4.33;77.41;101284.19;110838;1206;96461;-70
2024/02/01 00:36:27;;;;;;;14.30;7.00;;;;;;;4.35;77.38;101276.57;110929;1212;97722;-69
2024/02/01 00:38:52;;;;;;;11.30;5.90;;;;;;;4.36;77.27;101260.29;110740;1218;138864;-70
2024/02/01 00:41:18;;;;;;;11.70;6.70;;;;;;;4.37;77.53;101251.24;110965;1206;97603;-70
2024/02/01 00:43:43;;;;;;;13.00;7.10;;;;;;;4.40;77.47;101245.39;110783;1206;138296;-70
2024/02/01 00:46:10;;;;;;;12.40;7.00;;;;;;;4.43;77.61;101234.03;110817;1211;97756;-70
2024/02/01 00:48:35;;;;;;;14.40;7.90;;;;;;;4.45;77.42;101228.89;110979;1206;97549;-70
2024/02/01 00:51:00;;;;;;;13.80;7.70;;;;;;;4.46;77.73;101215.42;110746;1209;138729;-70
2024/02/01 00:53:27;;;;;;;13.10;7.40;;;;;;;4.49;77.79;101209.39;110981;1208;97655;-70
2024/02/01 00:55:53;;;;;;;16.50;7.20;;;;;;;4.49;77.53;101206.90;110784;1212;140019;-70
2024/02/01 00:58:18;;;;;;;12.70;7.30;;;;;;;4.49;77.33;101200.71;110890;1212;97569;-70
2024/02/01 01:00:43;;;;;;;16.10;7.40;;;;;;;4.48;77.61;101197.52;110862;1212;97773;-70
2024/02/01 01:03:08;;;;;;;15.90;8.20;;;;;;;4.47;77.57;101192.59;110805;1212;138550;-70
2024/02/01 01:05:34;;;;;;;14.30;7.10;;;;;;;4.45;77.73;101186.41;110516;1212;97698;-70
2024/02/01 01:07:59;;;;;;;16.10;8.40;;;;;;;4.46;77.56;101183.23;110825;1209;139128;-70
2024/02/01 01:10:24;;;;;;;16.00;8.80;;;;;;;4.47;77.59;101176.84;110678;1212;97595;-70
2024/02/01 01:12:49;;;;;;;19.80;8.60;;;;;;;4.48;77.61;101170.64;110307;1210;98158;-70
2024/02/01 01:15:17;;;;;;;17.10;8.80;;;;;;;4.47;77.49;101160.02;110293;1206;138851;-70
2024/02/01 01:17:42;;;;;;;18.00;8.80;;;;;;;4.46;77.66;101154.91;110433;1212;98283;-70
2024/02/01 01:20:09;;;;;;;16.80;8.40;;;;;;;4.45;77.65;101150.31;110271;1212;139155;-70
2024/02/01 01:22:35;;;;;;;19.30;8.50;;;;;;;4.44;77.77;101139.53;110686;1212;97862;-70
2024/02/01 01:25:00;;;;;;;19.40;8.80;;;;;;;4.43;77.56;101135.48;110399;1205;97622;-69
2024/02/01 01:27:25;;;;;;;21.10;9.50;;;;;;;4.43;77.73;101133.35;111048;1212;138465;-70
2024/02/01 01:29:51;;;;;;;28.30;10.20;;;;;;;4.42;77.62;101136.55;110901;1212;97797;-70
2024/02/01 01:32:17;;;;;;;25.30;10.40;;;;;;;4.41;77.72;101135.85;110883;1208;138592;-70
2024/02/01 01:34:42;;;;;;;22.10;9.80;;;;;;;4.40;77.62;101133.04;110866;1209;97578;-70
2024/02/01 01:37:07;;;;;;;23.10;10.20;;;;;;;4.39;78.00;101129.15;110882;1206;97569;-70
2024/02/01 01:39:33;;;;;;;22.90;10.90;;;;;;;4.41;77.85;101121.17;110742;1212;139250;-70
2024/02/01 01:41:58;;;;;;;27.70;12.40;;;;;;;4.42;77.95;101128.05;110915;1206;97908;-70
2024/02/01 01:44:23;;;;;;;26.60;11.90;;;;;;;4.42;77.77;101124.34;110704;1212;138796;-70
2024/02/01 01:46:49;;;;;;;29.60;12.60;;;;;;;4.40;77.67;101125.26;110845;1206;98951;-70
2024/02/01 01:49:17;;;;;;;25.30;11.90;;;;;;;4.38;77.82;101130.05;110851;1206;108500;-70
2024/02/01 01:51:43;;;;;;;23.50;10.80;;;;;;;4.37;77.57;101122.80;110761;1206;138587;-70
2024/02/01 01:54:09;;;;;;;26.30;12.70;;;;;;;4.36;78.06;101123.70;111010;1206;97634;-70
2024/02/01 01:56:37;;;;;;;23.70;11.60;;;;;;;4.37;77.85;101124.05;110815;1206;138627;-70
2024/02/01 01:59:05;;;;;;;31.00;13.00;;;;;;;4.36;78.04;101119.10;111002;1212;108758;-70
2024/02/01 02:01:33;;;;;;;35.00;13.60;;;;;;;4.35;77.79;101117.86;110813;1206;139508;-70
2024/02/01 02:04:01;;;;;;;28.70;11.80;;;;;;;4.34;77.93;101112.05;110831;1222;98128;-70
2024/02/01 02:06:29;;;;;;;28.30;13.00;;;;;;;4.34;77.96;101110.10;110854;1210;111673;-70
2024/02/01 02:08:54;;;;;;;26.70;12.30;;;;;;;4.31;78.06;101101.27;110783;1209;138720;-70
2024/02/01 02:11:23;;;;;;;30.70;13.00;;;;;;;4.31;77.91;101105.35;110522;1212;98854;-70
2024/02/01 02:13:48;;;;;;;29.80;12.50;;;;;;;4.30;78.05;101096.15;110442;1206;139043;-70
2024/02/01 02:16:14;;;;;;;30.60;13.60;;;;;;;4.30;78.09;101095.62;110740;1210;99053;-70
2024/02/01 02:18:39;;;;;;;32.60;13.20;;;;;;;4.26;78.02;101086.48;110899;1206;99987;-70
2024/02/01 02:21:05;;;;;;;29.40;12.60;;;;;;;4.26;78.11;101090.89;110647;1212;138701;-70
2024/02/01 02:23:31;;;;;;;26.90;13.20;;;;;;;4.27;77.92;101087.52;110938;1212;97731;-70
2024/02/01 02:25:56;;;;;;;29.00;13.80;;;;;;;4.27;78.30;101080.10;110718;1206;138899;-70
2024/02/01 02:28:21;;;;;;;27.00;12.60;;;;;;;4.26;77.90;101074.27;110844;1209;98557;-70
2024/02/01 02:30:47;;;;;;;29.80;14.00;;;;;;;4.25;78.19;101067.38;110906;1217;97594;-70
2024/02/01 02:33:13;;;;;;;29.10;12.70;;;;;;;4.27;78.27;101059.92;110891;1209;138696;-71
2024/02/01 02:35:38;;;;;;;28.70;13.60;;;;;;;4.27;78.14;101057.11;110924;1206;97965;-70
2024/02/01 02:38:04;;;;;;;29.00;12.70;;;;;;;4.26;78.23;101048.97;110752;1209;138838;-70
2024/02/01 02:40:29;;;;;;;27.10;12.10;;;;;;;4.26;78.26;101043.67;110895;1206;97897;-71
2024/02/01 02:42:54;;;;;;;29.30;13.00;;;;;;;4.25;78.46;101039.61;110905;1206;97642;-70
2024/02/01 02:45:19;;;;;;;30.10;13.30;;;;;;;4.22;78.31;101032.39;110774;1206;138981;-70
2024/02/01 02:47:45;;;;;;;31.10;13.50;;;;;;;4.20;78.30;101029.74;110954;1212;97683;-70
2024/02/01 02:50:11;;;;;;;26.30;12.70;;;;;;;4.20;78.38;101022.14;110780;1209;139198;-70
2024/02/01 02:52:39;;;;;;;28.10;12.50;;;;;;;4.20;78.47;101031.17;110884;1206;97580;-70
2024/02/01 02:55:08;;;;;;;29.90;13.70;;;;;;;4.15;78.43;101021.85;111030;1210;97704;-70
2024/02/01 02:57:34;;;;;;;33.30;14.10;;;;;;;4.19;78.54;101025.16;110881;1212;138703;-70
2024/02/01 03:00:02;;;;;;;29.10;13.50;;;;;;;4.22;78.56;101026.36;110973;1209;97579;-70
2024/02/01 03:02:27;;;;;;;24.00;12.50;;;;;;;4.23;78.64;101029.19;110833;1207;138606;-70
2024/02/01 03:04:52;;;;;;;28.10;14.30;;;;;;;4.22;78.48;101023.35;110948;1210;98084;-71
2024/02/01 03:07:18;;;;;;;29.60;12.80;;;;;;;4.19;78.44;101020.92;110869;1212;97658;-70
2024/02/01 03:09:43;;;;;;;32.40;14.00;;;;;;;4.18;78.51;101015.45;110761;1206;138699;-70
2024/02/01 03:12:09;;;;;;;29.30;13.10;;;;;;;4.17;78.62;101011.40;111057;1206;97601;-70
2024/02/01 03:14:39;;;;;;;34.10;13.10;;;;;;;4.17;78.63;101015.47;110808;1206;139292;-70
2024/02/01 03:17:05;;;;;;;30.00;13.20;;;;;;;4.15;78.59;101013.89;110856;1212;108329;-70
2024/02/01 03:19:34;;;;;;;28.30;13.30;;;;;;;4.11;78.72;101005.09;110794;1211;138870;-69
2024/02/01 03:21:59;;;;;;;27.80;12.90;;;;;;;4.12;78.61;101009.51;110830;1206;97656;-70
2024/02/01 03:24:25;;;;;;;30.50;12.50;;;;;;;4.10;78.53;101005.98;110890;1212;97677;-69
2024/02/01 03:26:50;;;;;;;26.50;11.30;;;;;;;4.09;78.55;101006.53;110762;1212;139637;-69
2024/02/01 03:29:17;;;;;;;27.50;12.60;;;;;;;4.08;78.75;100998.59;110918;1221;98934;-70
2024/02/01 03:31:43;;;;;;;24.70;11.60;;;;;;;4.08;78.74;100993.64;110781;1206;138885;-70
2024/02/01 03:34:15;;;;;;;27.40;13.00;;;;;;;4.10;78.68;100987.95;110894;1212;97709;-70
2024/02/01 03:36:41;;;;;;;25.10;11.60;;;;;;;4.12;78.87;100984.22;110823;1212;107825;-69
2024/02/01 03:39:22;;;;;;;25.30;12.20;;;;;;;4.13;78.91;100978.73;110681;1212;138672;-70
2024/02/01 03:41:55;;;;;;;32.40;12.00;;;;;;;4.14;78.93;100985.77;110922;1206;97779;-69
2024/02/01 03:44:24;;;;;;;23.00;11.20;;;;;;;4.13;78.94;100981.36;110890;1206;138513;-70
2024/02/01 03:46:54;;;;;;;26.40;11.30;;;;;;;4.15;78.93;100983.12;110888;1222;100050;-70
2024/02/01 03:49:20;;;;;;;22.40;10.00;;;;;;;4.15;79.00;100985.60;110902;1209;108105;-70
2024/02/01 03:51:46;;;;;;;22.30;10.30;;;;;;;4.12;78.88;100978.73;110705;1212;138813;-69
2024/02/01 03:54:11;;;;;;;24.20;10.70;;;;;;;4.13;78.99;100982.96;110964;1211;97916;-70
2024/02/01 03:56:40;;;;;;;20.80;10.10;;;;;;;4.12;78.94;100981.56;110777;1206;139179;-70
2024/02/01 03:59:09;;;;;;;21.50;9.20;;;;;;;4.12;78.93;100976.09;110825;1210;107947;-70
2024/02/01 04:01:35;;;;;;;22.30;10.00;;;;;;;4.13;78.99;100974.13;110821;1212;140218;-69
2024/02/01 04:04:02;;;;;;;22.60;9.80;;;;;;;4.14;79.03;100966.67;110859;1212;101196;-69
2024/02/01 04:06:27;;;;;;;18.50;8.80;;;;;;;4.15;79.25;100957.47;110857;1210;98269;-69
2024/02/01 04:08:53;;;;;;;16.30;8.70;;;;;;;4.16;79.25;100959.76;110607;1212;139844;-70
2024/02/01 04:11:18;;;;;;;19.20;7.90;;;;;;;4.16;79.17;100965.42;110796;1206;97679;-70
2024/02/01 04:13:44;;;;;;;14.60;7.50;;;;;;;4.16;79.14;100967.71;110779;1212;138714;-69
2024/02/01 04:16:09;;;;;;;16.90;7.30;;;;;;;4.17;79.13;100970.00;110751;1206;97687;-70
2024/02/01 04:18:35;;;;;;;12.10;6.90;;;;;;;4.16;79.09;100968.26;110862;1212;97695;-69
2024/02/01 04:21:00;;;;;;;14.60;6.80;;;;;;;4.15;79.19;100966.84;110639;1206;139289;-70
2024/02/01 04:23:26;;;;;;;14.60;6.60;;;;;;;4.16;79.12;100966.48;110831;1206;111178;-70
2024/02/01 04:25:52;;;;;;;10.20;5.50;;;;;;;4.17;79.11;100966.65;110762;1212;139212;-69
2024/02/01 04:28:18;;;;;;;9.70;5.50;;;;;;;4.17;79.05;100963.64;110890;1212;100612;-70
2024/02/01 04:30:50;;;;;;;14.60;6.60;;;;;;;4.16;79.17;100968.25;110874;1211;97613;-70
2024/02/01 04:33:22;;;;;;;12.10;6.10;;;;;;;4.16;79.05;100974.98;110801;1210;138292;-70
2024/02/01 04:35:48;;;;;;;11.30;5.30;;;;;;;4.16;79.39;100974.63;110868;1206;99103;-70
2024/02/01 04:38:13;;;;;;;15.00;6.90;;;;;;;4.17;79.31;100977.79;110758;1212;138410;-70
2024/02/01 04:40:39;;;;;;;11.90;6.50;;;;;;;4.18;79.19;100982.20;110938;1205;97744;-69
2024/02/01 04:43:05;;;;;;;15.30;6.80;;;;;;;4.17;79.09;100982.38;110911;1211;111742;-69
2024/02/01 04:45:34;;;;;;;12.30;5.80;;;;;;;4.16;79.28;100982.94;110742;1210;139156;-70
2024/02/01 04:48:03;;;;;;;9.90;5.60;;;;;;;4.15;79.28;100984.01;110988;1206;97655;-70
2024/02/01 04:50:29;;;;;;;11.20;5.50;;;;;;;4.16;79.27;100975.85;110870;1209;139286;-69
2024/02/01 04:52:54;;;;;;;10.20;6.10;;;;;;;4.15;79.27;100976.92;110919;1209;97623;-70
2024/02/01 04:55:19;;;;;;;10.90;6.10;;;;;;;4.13;79.31;100971.83;110952;1206;96777;-70
2024/02/01 04:57:45;;;;;;;10.50;6.10;;;;;;;4.13;79.27;100972.90;110791;1206;138528;-70
2024/02/01 05:00:14;;;;;;;11.80;6.00;;;;;;;4.13;79.45;100976.24;110944;1206;97931;-70
2024/02/01 05:02:41;;;;;;;10.70;5.60;;;;;;;4.11;79.50;100974.67;110781;1206;138340;-70
2024/02/01 05:05:08;;;;;;;17.80;6.60;;;;;;;4.10;79.61;100972.39;110803;1206;97782;-70
2024/02/01 05:07:34;;;;;;;12.20;6.20;;;;;;;4.09;79.66;100968.87;110808;1206;138991;-69
2024/02/01 05:10:00;;;;;;;12.20;7.00;;;;;;;4.07;79.48;100971.71;110870;1206;98090;-70
2024/02/01 05:12:25;;;;;;;10.80;5.80;;;;;;;4.06;79.69;100974.56;110387;1209;97630;-69
2024/02/01 05:14:52;;;;;;;11.20;5.80;;;;;;;4.05;79.61;100969.63;110262;1211;138641;-69
2024/02/01 05:17:17;;;;;;;13.80;7.20;;;;;;;4.04;79.63;100969.10;110453;1220;97683;-69
2024/02/01 05:19:42;;;;;;;12.20;6.00;;;;;;;4.02;79.71;100974.08;110341;1218;138837;-69
2024/02/01 05:22:09;;;;;;;14.20;7.00;;;;;;;3.97;79.58;100971.30;110299;1212;97727;-69
2024/02/01 05:24:34;;;;;;;12.60;5.70;;;;;;;3.94;79.82;100976.47;110414;1210;97689;-69
2024/02/01 05:27:07;;;;;;;19.70;6.50;;;;;;;3.92;79.69;100976.50;110539;1206;138922;-69
2024/02/01 05:29:34;;;;;;;15.60;6.90;;;;;;;3.88;79.84;100967.86;110856;1212;97790;-69
2024/02/01 05:32:00;;;;;;;12.00;6.50;;;;;;;3.88;79.99;100968.58;110782;1206;139056;-70
2024/02/01 05:34:26;;;;;;;13.80;6.80;;;;;;;3.86;79.99;100971.25;110900;1211;97712;-69
2024/02/01 05:36:52;;;;;;;9.90;5.40;;;;;;;3.84;80.07;100975.33;110788;1210;97847;-69
2024/02/01 05:39:25;;;;;;;13.90;7.10;;;;;;;3.83;80.17;100981.36;110805;1208;138291;-70
2024/02/01 05:41:58;;;;;;;15.50;6.60;;;;;;;3.78;80.29;100979.46;110796;1206;113731;-69
2024/02/01 05:44:27;;;;;;;12.50;6.00;;;;;;;3.76;80.28;100980.19;110768;1206;139426;-70
2024/02/01 05:46:54;;;;;;;10.50;5.80;;;;;;;3.76;80.26;100983.19;110899;1208;107891;-69
2024/02/01 05:49:23;;;;;;;14.70;5.50;;;;;;;3.77;80.41;100978.41;110827;1206;97705;-69
2024/02/01 05:51:53;;;;;;;10.90;5.10;;;;;;;3.75;80.47;100973.66;110764;1222;138245;-69
2024/02/01 05:54:21;;;;;;;15.10;6.60;;;;;;;3.71;80.78;100976.88;110914;1210;111551;-69
2024/02/01 05:56:48;;;;;;;9.00;5.20;;;;;;;3.68;80.50;100975.85;110790;1209;138599;-69
2024/02/01 05:59:15;;;;;;;16.10;6.30;;;;;;;3.66;80.90;100977.64;110837;1206;99088;-71
2024/02/01 06:01:42;;;;;;;12.80;7.40;;;;;;;3.64;80.92;100982.79;110779;1206;138710;-69
2024/02/01 06:04:11;;;;;;;11.70;6.20;;;;;;;3.61;80.88;100978.04;110820;1209;97583;-70
2024/02/01 06:06:47;;;;;;;15.60;6.50;;;;;;;3.61;81.06;100986.17;110889;1206;111681;-70
2024/02/01 06:09:14;;;;;;;12.20;6.10;;;;;;;3.63;81.06;100988.98;110664;1211;139175;-70
2024/02/01 06:11:41;;;;;;;10.40;6.10;;;;;;;3.63;81.17;100993.04;110586;1218;98480;-69
2024/02/01 06:14:07;;;;;;;10.10;5.90;;;;;;;3.63;81.05;100996.05;110120;1211;138710;-70
2024/02/01 06:16:33;;;;;;;12.70;5.50;;;;;;;3.61;81.39;100994.65;110536;1206;97635;-71
2024/02/01 06:18:58;;;;;;;9.60;5.40;;;;;;;3.61;81.43;100983.88;110938;1209;97645;-70
2024/02/01 06:21:24;;;;;;;9.50;5.50;;;;;;;3.61;81.39;100989.17;110856;1219;138178;-69
2024/02/01 06:23:49;;;;;;;7.80;5.10;;;;;;;3.62;81.47;100999.07;110825;1208;97887;-70
2024/02/01 06:26:25;;;;;;;13.60;5.60;;;;;;;3.59;81.66;101001.02;110861;1208;138493;-69
2024/02/01 06:28:56;;;;;;;10.90;5.40;;;;;;;3.57;81.75;101001.23;110901;1206;99444;-69
2024/02/01 06:31:24;;;;;;;9.80;4.90;;;;;;;3.55;81.73;100991.17;110882;1206;107457;-69
2024/02/01 06:33:50;;;;;;;8.60;5.40;;;;;;;3.54;81.76;100997.72;110656;1219;138306;-69
2024/02/01 06:36:19;;;;;;;9.70;4.50;;;;;;;3.50;82.10;100998.64;110888;1212;98315;-69
2024/02/01 06:41:28;;;;;;;10.00;5.80;;;;;;;3.44;82.08;100999.58;110925;1211;100155;-69
2024/02/01 06:49:28;;;;;;;10.80;6.10;;;;;;;3.36;82.60;101002.65;110843;1210;98202;-69
2024/02/01 06:52:02;;;;;;;12.00;5.10;;;;;;;3.37;82.65;101000.52;110664;1205;138106;-69
2024/02/01 06:54:50;;;;;;;9.00;5.80;;;;;;;3.39;82.61;100993.44;110890;1210;100049;-68
2024/02/01 06:57:18;;;;;;;8.70;5.30;;;;;;;3.39;82.90;100996.08;110716;1212;138307;-68
2024/02/01 07:05:25;;;;;;;13.60;5.10;;;;;;;3.39;83.26;100991.48;110674;1212;112454;-69
2024/02/01 07:08:02;;;;;;;9.70;5.20;;;;;;;3.38;83.15;100994.50;110594;1209;138728;-69
2024/02/01 07:10:43;;;;;;;13.00;6.30;;;;;;;3.37;83.46;100991.33;110925;1210;108047;-67
2024/02/01 07:13:44;;;;;;;8.90;5.00;;;;;;;3.39;83.41;100994.67;110734;1206;98878;-67
2024/02/01 07:16:21;;;;;;;11.20;6.20;;;;;;;3.40;83.43;100994.48;110725;1222;97730;-67
2024/02/01 07:24:37;;;;;;;10.90;6.40;;;;;;;3.39;83.90;101006.50;110935;1209;106118;-68
2024/02/01 07:59:58;;;;;;;12.20;5.70;;;;;;;3.68;85.36;101058.21;110877;1210;112450;-68
2024/02/01 08:07:56;;;;;;;10.10;6.30;;;;;;;3.77;85.62;101064.84;110384;1211;138904;-70
2024/02/01 08:10:22;;;;;;;14.60;7.00;;;;;;;3.79;85.56;101058.81;110654;1218;96468;-70
2024/02/01 08:12:48;;;;;;;13.00;6.80;;;;;;;3.81;85.72;101062.33;110993;1206;99386;-69
2024/02/01 08:15:19;;;;;;;;;;;;;;;3.83;85.61;101073.80;110731;1211;138436;-70
2024/02/01 08:17:52;;;;;;;14.00;7.20;;;;;;;3.84;85.86;101071.14;110756;1208;97693;-69
2024/02/01 08:20:19;;;;;;;19.10;7.50;;;;;;;3.87;85.91;101069.34;110611;1205;140384;-71
2024/02/01 08:22:45;;;;;;;9.40;6.60;;;;;;;3.90;86.05;101071.80;110641;1209;111434;-70
2024/02/01 08:25:11;;;;;;;11.90;7.60;;;;;;;3.93;86.10;101073.18;110735;1211;97619;-70
2024/02/01 08:27:37;;;;;;;11.10;7.70;;;;;;;3.95;86.16;101086.24;110846;1211;140257;-67
2024/02/01 08:30:12;;;;;;;12.70;7.60;;;;;;;3.97;86.44;101091.36;110897;1208;99279;-68
2024/02/01 08:32:39;;;;;;;15.50;7.30;;;;;;;3.99;86.35;101087.44;110789;1206;140899;-68
2024/02/01 08:35:10;;;;;;;16.20;7.50;;;;;;;4.03;86.57;101087.42;110868;1206;97690;-69
2024/02/01 08:37:36;;;;;;;16.10;7.10;;;;;;;4.05;86.66;101089.86;110865;1209;108240;-70
2024/02/01 08:40:02;;;;;;;16.20;7.50;;;;;;;4.06;86.57;101084.20;110649;1206;140476;-69
2024/02/01 08:42:29;;;;;;;14.90;7.40;;;;;;;4.10;86.57;101092.65;110833;1211;97744;-69
2024/02/01 08:44:55;;;;;;;14.30;7.30;;;;;;;4.13;86.69;101089.08;110799;1210;139193;-70
2024/02/01 08:47:23;;;;;;;13.30;6.80;;;;;;;4.17;86.89;101092.05;110812;1210;107737;-69
2024/02/01 08:49:49;;;;;;;9.40;6.10;;;;;;;4.19;86.84;101102.28;110713;1206;141574;-69
2024/02/01 08:52:15;;;;;;;11.90;6.30;;;;;;;4.21;86.87;101103.67;111041;1209;98322;-69
2024/02/01 08:54:41;;;;;;;14.50;7.60;;;;;;;4.24;86.97;101112.14;110902;1206;97598;-69
2024/02/01 08:57:13;;;;;;;11.40;7.00;;;;;;;4.27;87.16;101110.17;110675;1209;140795;-68
2024/02/01 08:59:40;;;;;;;10.80;6.50;;;;;;;4.32;87.22;101115.43;110896;1216;97750;-68
2024/02/01 09:02:14;;;;;;;10.20;6.90;;;;;;;4.38;87.14;101114.83;110695;1210;140422;-68
2024/02/01 09:04:41;;;;;;;12.50;7.30;;;;;;;4.44;87.46;101107.70;110859;1206;111916;-68
2024/02/01 09:07:08;;;;;;;12.70;7.00;;;;;;;4.49;87.44;101103.73;110839;1210;97632;-68
2024/02/01 09:09:34;;;;;;;16.00;7.50;;;;;;;4.54;87.62;101101.73;110681;1211;139863;-68
2024/02/01 09:12:01;;;;;;;11.00;7.10;;;;;;;4.61;87.66;101102.20;110773;1212;97642;-68
2024/02/01 09:14:27;;;;;;;12.40;7.10;;;;;;;4.68;87.70;101105.29;110814;1206;140752;-68
2024/02/01 09:16:53;;;;;;;17.70;7.20;;;;;;;4.74;87.62;101104.50;110753;1209;99917;-68
2024/02/01 09:19:19;;;;;;;10.30;6.80;;;;;;;4.78;87.52;101115.25;110698;1210;97573;-68
2024/02/01 09:21:44;;;;;;;9.40;5.40;;;;;;;4.83;87.74;101116.98;110693;1214;140290;-68
2024/02/01 09:24:09;;;;;;;10.10;6.60;;;;;;;4.89;87.73;101110.88;110695;1210;97674;-68
2024/02/01 09:26:34;;;;;;;9.10;5.90;;;;;;;4.96;87.70;101117.70;110607;1211;139873;-69
2024/02/01 09:29:11;;;;;;;12.40;6.40;;;;;;;5.01;87.67;101125.24;110669;1213;97984;-70
2024/02/01 09:31:36;;;;;;;12.30;6.20;;;;;;;5.03;87.47;101110.33;110808;1211;97933;-68
2024/02/01 09:34:01;;;;;;;7.80;5.20;;;;;;;5.07;87.67;101116.30;110751;1206;138816;-71
2024/02/01 09:36:27;;;;;;;11.20;5.60;;;;;;;5.10;87.68;101109.70;111456;1206;97597;-68
2024/02/01 09:38:54;;;;;;;10.20;5.50;;;;;;;5.13;87.62;101120.11;110581;1212;138299;-68
2024/02/01 09:41:21;;;;;;;10.70;4.90;;;;;;;5.14;87.54;101131.27;110881;1206;97751;-68
2024/02/01 09:43:52;;;;;;;11.80;4.90;;;;;;;5.16;87.47;101120.27;110880;1210;99864;-68
2024/02/01 09:46:20;;;;;;;9.00;4.90;;;;;;;5.23;87.63;101120.13;110748;1208;100134;-68
2024/02/01 09:48:47;;;;;;;8.20;4.40;;;;;;;5.28;87.60;101120.59;110779;1206;97766;-67
2024/02/01 09:51:17;;;;;;;10.10;5.00;;;;;;;5.32;87.57;101109.19;110785;1206;138374;-67
2024/02/01 09:53:47;;;;;;;10.90;4.40;;;;;;;5.38;87.62;101117.44;110825;1206;97691;-69
2024/02/01 09:56:12;;;;;;;10.60;5.00;;;;;;;5.41;87.46;101116.85;111342;1210;140003;-69
2024/02/01 09:58:39;;;;;;;9.20;3.80;;;;;;;5.44;87.46;101118.59;110761;1206;97680;-69
2024/02/01 10:01:05;;;;;;;6.90;3.90;;;;;;;5.46;87.19;101120.67;110748;1212;97703;-68
2024/02/01 10:03:30;;;;;;;11.90;4.80;;;;;;;5.48;87.29;101116.23;110915;1211;138330;-68
2024/02/01 10:05:56;;;;;;;8.80;5.30;;;;;;;5.51;87.28;101100.56;110708;1207;97747;-67
2024/02/01 10:08:25;;;;;;;10.30;4.10;;;;;;;5.57;87.23;101094.64;110657;1211;138309;-67
2024/02/01 10:10:51;;;;;;;5.80;3.50;;;;;;;5.62;87.15;101103.06;110833;1210;97667;-67
2024/02/01 10:13:18;;;;;;;8.50;4.40;;;;;;;5.63;86.95;101101.46;110966;1210;97664;-68
2024/02/01 10:15:44;;;;;;;7.30;4.10;;;;;;;5.64;86.98;101090.80;110767;1208;138020;-69
2024/02/01 10:18:20;;;;;;;14.20;4.50;;;;;;;5.71;86.88;101090.34;110806;1206;97697;-68
2024/02/01 10:20:54;;;;;;;8.90;4.20;;;;;;;5.76;86.93;101103.90;110747;1210;139966;-68
2024/02/01 10:23:20;;;;;;;10.30;4.30;;;;;;;5.79;86.91;101104.57;110936;1206;97687;-67
2024/02/01 10:25:48;;;;;;;4.90;3.20;;;;;;;5.81;86.66;101100.80;110962;1206;97745;-67
2024/02/01 10:28:19;;;;;;;13.00;4.30;;;;;;;5.83;86.72;101103.44;110674;1210;138203;-68
2024/02/01 10:30:51;;;;;;;8.80;3.50;;;;;;;5.85;86.70;101091.51;110886;1210;99981;-66
2024/02/01 10:33:19;;;;;;;11.30;3.50;;;;;;;5.87;86.52;101091.48;110745;1212;138485;-73
2024/02/01 10:35:48;;;;;;;14.20;4.00;;;;;;;5.87;86.25;101098.93;110884;1210;97642;-70
2024/02/01 10:38:26;;;;;;;10.70;3.90;;;;;;;5.85;86.40;101094.71;111168;1208;138420;-70
2024/02/01 10:40:58;;;;;;;8.10;3.80;;;;;;;5.84;86.16;101101.45;111071;1206;111081;-70
2024/02/01 10:43:35;;;;;;;8.70;3.50;;;;;;;5.85;86.31;101093.11;110914;1207;99999;-71
2024/02/01 10:46:07;;;;;;;11.70;4.00;;;;;;;5.92;86.10;101091.44;110732;1210;138553;-70
2024/02/01 10:48:45;;;;;;;7.10;4.00;;;;;;;5.92;85.84;101086.64;110844;1214;97631;-70
2024/02/01 10:51:11;;;;;;;7.70;3.40;;;;;;;5.90;85.67;101093.05;110806;1210;138172;-70
2024/02/01 10:53:42;;;;;;;11.70;3.80;;;;;;;5.85;85.54;101099.67;110942;1209;97691;-70
2024/02/01 10:56:14;;;;;;;9.20;3.40;;;;;;;5.82;85.55;101084.83;110849;1211;139879;-69
2024/02/01 10:58:42;;;;;;;;;;;;;;;5.80;85.33;101083.63;111011;1209;107575;-73
2024/02/01 11:01:09;;;;;;;10.20;3.20;;;;;;;5.78;85.31;101086.67;110942;1209;97560;-73
2024/02/01 11:03:35;;;;;;;13.00;3.60;;;;;;;5.76;85.25;101073.23;110776;1208;139750;-71
2024/02/01 11:06:01;;;;;;;11.70;3.60;;;;;;;5.76;85.20;101081.55;110870;1210;97716;-70
2024/02/01 11:08:33;;;;;;;10.60;3.60;;;;;;;5.78;84.97;101082.06;110932;1210;140115;-69
2024/02/01 11:11:15;;;;;;;8.00;2.70;;;;;;;5.79;84.98;101070.35;110855;1210;110680;-69
2024/02/01 11:14:01;;;;;;;12.10;3.40;;;;;;;5.81;84.78;101063.56;110921;1206;97833;-68
2024/02/01 11:16:49;;;;;;;9.80;3.20;;;;;;;5.88;84.95;101058.48;110836;1214;99606;-68
2024/02/01 11:19:17;;;;;;;10.50;3.30;;;;;;;5.97;84.83;101055.88;110913;1210;111521;-70
2024/02/01 11:21:54;;;;;;;10.70;3.10;;;;;;;6.02;84.70;101048.86;110875;1208;138397;-71
2024/02/01 11:24:28;;;;;;;5.30;2.80;;;;;;;6.05;84.43;101048.63;111107;1211;107437;-70
2024/02/01 11:27:00;;;;;;;8.70;2.10;;;;;;;6.06;84.37;101041.52;110728;1209;138351;-70
2024/02/01 11:29:45;;;;;;;10.40;2.40;;;;;;;6.08;84.18;101051.41;110930;1207;98276;-69
2024/02/01 11:32:16;;;;;;;12.30;3.10;;;;;;;6.09;83.95;101038.61;110728;1210;140569;-69
2024/02/01 11:34:49;;;;;;;9.70;2.70;;;;;;;6.11;84.03;101050.81;110871;1207;100080;-69
2024/02/01 11:37:16;;;;;;;12.60;3.10;;;;;;;6.14;83.80;101049.52;110839;1206;108061;-69
2024/02/01 11:39:45;;;;;;;10.20;3.40;;;;;;;6.19;83.81;101055.27;110847;1219;138484;-71
2024/02/01 11:42:10;;;;;;;13.20;3.00;;;;;;;6.23;83.58;101038.36;111044;1209;97345;-71
2024/02/01 11:44:36;;;;;;;11.70;2.80;;;;;;;6.24;83.37;101037.10;110768;1208;140449;-69
2024/02/01 11:47:01;;;;;;;12.10;3.10;;;;;;;6.25;83.24;101049.67;110963;1212;97623;-69
2024/02/01 11:49:30;;;;;;;11.00;2.20;;;;;;;6.27;83.37;101043.95;110873;1207;98571;-70
2024/02/01 11:51:57;;;;;;;10.60;3.00;;;;;;;6.33;83.06;101041.88;110774;1210;139033;-70
2024/02/01 11:54:27;;;;;;;8.40;3.30;;;;;;;6.42;83.13;101036.55;111107;1210;97729;-69
2024/02/01 11:56:56;;;;;;;6.90;2.70;;;;;;;6.55;83.04;101036.48;110758;1206;138308;-69
2024/02/01 11:59:25;;;;;;;8.60;2.10;;;;;;;6.65;82.76;101057.56;110872;1206;108260;-70
2024/02/01 12:01:51;;;;;;;20.20;2.60;;;;;;;6.69;82.66;101073.65;110892;1222;99993;-70
2024/02/01 12:04:16;;;;;;;7.30;1.60;;;;;;;6.66;81.97;101075.30;110849;1208;138004;-69
2024/02/01 12:06:43;;;;;;;11.10;2.30;;;;;;;6.63;81.81;101086.21;111019;1209;99216;-69
2024/02/01 12:09:14;;;;;;;10.30;1.90;;;;;;;6.59;81.71;101082.73;110750;1205;138118;-68
2024/02/01 12:11:43;;;;;;;15.70;2.50;;;;;;;6.55;81.50;101079.44;110922;1211;97992;-68
2024/02/01 12:14:11;;;;;;;9.00;2.50;;;;;;;6.50;81.26;101077.41;110885;1208;137928;-69